Time;durP1;ratioP1;P1;durP2;ratioP2;P2;SDS_P1;SDS_P2;PMS_P1;PMS_P2;Temp;Humidity;BMP_temperature;BMP_pressure;BME280_temperature;BME280_humidity;BME280_pressure;Samples;Min_cycle;Max_cycle;Signal;HPM_P1;HPM_P2
2023/02/06 00:01:26;;;;;;;3.85;1.50;;;23.80;45.10;;;;;;5040704;28;20083;-69
2023/02/06 00:03:52;;;;;;;8.38;2.47;;;23.80;45.30;;;;;;5041878;28;20032;-70
2023/02/06 00:06:19;;;;;;;4.15;2.65;;;23.80;44.80;;;;;;5038657;28;20033;-71
2023/02/06 00:08:45;;;;;;;4.55;2.20;;;23.70;44.40;;;;;;5045639;28;20038;-69
2023/02/06 00:11:15;;;;;;;5.25;1.45;;;23.60;44.10;;;;;;5040868;28;20044;-69
2023/02/06 00:13:43;;;;;;;5.50;4.78;;;23.70;43.90;;;;;;5043038;28;20150;-66
2023/02/06 00:16:24;;;;;;;9.88;1.40;;;23.50;42.70;;;;;;5045221;28;20061;-68
2023/02/06 00:18:52;;;;;;;4.90;1.23;;;23.50;42.70;;;;;;5042591;28;20036;-69
2023/02/06 00:21:23;;;;;;;7.10;1.10;;;23.60;42.70;;;;;;5042312;28;20062;-70
2023/02/06 00:23:50;;;;;;;4.93;1.02;;;23.50;42.30;;;;;;5039418;28;20037;-71
2023/02/06 00:26:17;;;;;;;5.43;0.80;;;23.40;42.40;;;;;;5040902;28;20041;-68
2023/02/06 00:28:44;;;;;;;2.55;0.70;;;23.40;42.40;;;;;;5039678;28;20045;-68
2023/02/06 00:31:10;;;;;;;5.90;0.63;;;23.40;42.30;;;;;;5046188;28;20152;-69
2023/02/06 00:33:37;;;;;;;3.15;0.63;;;23.60;41.60;;;;;;5038649;28;20035;-69
2023/02/06 00:36:04;;;;;;;3.60;1.20;;;23.60;41.00;;;;;;5040541;28;20051;-70
2023/02/06 00:38:32;;;;;;;6.65;1.30;;;23.70;41.10;;;;;;5040723;28;20044;-68
2023/02/06 00:40:58;;;;;;;2.13;0.88;;;23.60;41.00;;;;;;5041056;28;20063;-69
2023/02/06 00:43:25;;;;;;;5.40;2.03;;;23.40;41.30;;;;;;5039326;28;20060;-67
2023/02/06 00:45:52;;;;;;;3.83;1.30;;;23.40;41.50;;;;;;5039462;28;20052;-71
2023/02/06 00:48:19;;;;;;;13.07;1.20;;;23.30;41.20;;;;;;5039073;28;20045;-70
2023/02/06 00:50:49;;;;;;;4.90;1.00;;;23.10;41.00;;;;;;5042752;28;20123;-69
2023/02/06 00:53:15;;;;;;;5.43;0.98;;;22.90;41.10;;;;;;5041133;28;20037;-68
2023/02/06 00:55:42;;;;;;;8.60;1.20;;;22.90;40.90;;;;;;5039671;28;20052;-69
2023/02/06 00:58:08;;;;;;;19.17;9.43;;;22.70;41.00;;;;;;5040485;28;20064;-69
2023/02/06 01:00:35;;;;;;;20.73;9.18;;;22.70;40.90;;;;;;5040303;28;20055;-69
2023/02/06 01:03:01;;;;;;;15.93;5.65;;;22.60;41.00;;;;;;5043374;28;20089;-67
2023/02/06 01:05:28;;;;;;;23.52;10.00;;;22.40;41.50;;;;;;5044121;28;20038;-67
2023/02/06 01:07:55;;;;;;;35.05;15.73;;;22.30;41.70;;;;;;5039027;28;20045;-69
2023/02/06 01:10:21;;;;;;;21.65;14.95;;;22.20;41.80;;;;;;5043375;28;20053;-67
2023/02/06 01:12:47;;;;;;;4.32;1.38;;;22.00;41.60;;;;;;5043511;28;20080;-68
2023/02/06 01:15:14;;;;;;;7.75;2.25;;;22.00;41.80;;;;;;5042759;28;20092;-67
2023/02/06 01:17:41;;;;;;;3.28;0.95;;;21.90;41.80;;;;;;5039470;28;20503;-68
2023/02/06 01:20:11;;;;;;;4.60;1.15;;;21.70;41.80;;;;;;5042037;28;20056;-67
2023/02/06 01:22:38;;;;;;;1.73;1.00;;;21.70;42.30;;;;;;5042649;28;20044;-69
2023/02/06 01:25:05;;;;;;;5.65;1.10;;;21.60;42.00;;;;;;5040671;28;20035;-67
2023/02/06 01:27:34;;;;;;;5.63;1.40;;;21.50;42.20;;;;;;5041454;28;20060;-69
2023/02/06 01:30:00;;;;;;;3.83;1.92;;;21.40;41.70;;;;;;5040410;28;20162;-69
2023/02/06 01:32:27;;;;;;;10.45;2.50;;;21.30;41.30;;;;;;5042798;28;20080;-69
2023/02/06 01:34:53;;;;;;;9.27;2.30;;;21.20;40.40;;;;;;5035068;28;20071;-68
2023/02/06 01:37:19;;;;;;;18.15;7.63;;;21.20;41.00;;;;;;5038325;28;20051;-69
2023/02/06 01:39:46;;;;;;;18.02;5.88;;;21.10;39.50;;;;;;5041464;28;20060;-69
2023/02/06 01:42:13;;;;;;;5.90;2.70;;;21.00;39.50;;;;;;5040876;28;20039;-68
2023/02/06 01:44:41;;;;;;;3.20;1.77;;;20.90;38.70;;;;;;5039261;28;20039;-68
2023/02/06 01:47:09;;;;;;;6.75;1.58;;;20.90;38.90;;;;;;5038662;28;20484;-67
2023/02/06 01:49:43;;;;;;;5.75;1.90;;;20.80;38.70;;;;;;5040156;28;20092;-66
2023/02/06 01:52:17;;;;;;;9.32;2.85;;;20.80;38.50;;;;;;5042233;28;20035;-67
2023/02/06 01:54:51;;;;;;;6.60;2.40;;;20.70;38.90;;;;;;5039818;28;20057;-67
2023/02/06 01:57:19;;;;;;;20.75;2.53;;;20.70;39.50;;;;;;5038753;28;20068;-67
2023/02/06 01:59:50;;;;;;;6.03;1.80;;;20.60;39.60;;;;;;5044780;28;20460;-67
2023/02/06 02:02:17;;;;;;;9.40;1.83;;;20.50;39.70;;;;;;5039345;28;20041;-67
2023/02/06 02:04:44;;;;;;;7.20;1.42;;;20.50;40.20;;;;;;5045822;28;20045;-66
2023/02/06 02:07:26;;;;;;;7.45;1.70;;;20.40;40.80;;;;;;5041895;28;20081;-68
2023/02/06 02:09:52;;;;;;;10.10;2.40;;;20.20;41.20;;;;;;5043315;28;20086;-67
2023/02/06 02:12:19;;;;;;;11.25;2.50;;;20.10;41.70;;;;;;5043857;28;20134;-66
2023/02/06 02:14:48;;;;;;;17.75;3.80;;;20.00;42.30;;;;;;5042086;28;20041;-68
2023/02/06 02:17:20;;;;;;;13.75;3.30;;;19.90;41.90;;;;;;5043487;28;20547;-68
2023/02/06 02:20:15;;;;;;;5.78;1.90;;;19.80;40.80;;;;;;5044416;28;20064;-67
2023/02/06 02:23:00;;;;;;;7.20;1.45;;;19.70;40.00;;;;;;5045789;28;20074;-65
2023/02/06 02:25:44;;;;;;;6.18;1.90;;;19.70;39.70;;;;;;5047457;28;20081;-67
2023/02/06 02:28:29;;;;;;;5.85;1.10;;;19.70;39.80;;;;;;5045926;28;20054;-66
2023/02/06 02:31:14;;;;;;;7.53;1.33;;;19.60;39.70;;;;;;5040808;28;20071;-67
2023/02/06 02:33:56;;;;;;;5.07;1.10;;;19.60;40.50;;;;;;5042546;28;20077;-66
2023/02/06 02:36:50;;;;;;;5.78;1.02;;;19.50;40.10;;;;;;5042705;28;20062;-68
2023/02/06 02:39:29;;;;;;;4.00;1.33;;;19.50;40.40;;;;;;5043795;28;20453;-67
2023/02/06 02:42:03;;;;;;;4.40;1.50;;;19.50;40.40;;;;;;5042646;28;20437;-65
2023/02/06 02:44:42;;;;;;;4.88;1.35;;;19.40;41.20;;;;;;5045843;28;20629;-67
2023/02/06 02:47:13;;;;;;;6.47;1.50;;;19.40;42.40;;;;;;5042723;28;20098;-68
2023/02/06 02:49:41;;;;;;;6.30;1.40;;;19.20;42.20;;;;;;5041346;28;20058;-66
2023/02/06 02:52:08;;;;;;;4.68;1.52;;;19.20;42.70;;;;;;5040895;28;20060;-68
2023/02/06 02:54:34;;;;;;;5.25;1.35;;;19.10;42.90;;;;;;5045326;28;20453;-67
2023/02/06 02:57:09;;;;;;;3.95;1.30;;;19.10;43.40;;;;;;5043649;28;20083;-69
2023/02/06 02:59:40;;;;;;;6.70;1.50;;;19.00;43.40;;;;;;5041173;28;20066;-67
2023/02/06 03:02:23;;;;;;;5.15;1.25;;;18.90;43.80;;;;;;5042522;28;20043;-69
2023/02/06 03:05:04;;;;;;;4.57;1.40;;;18.90;44.30;;;;;;5040814;28;20128;-69
2023/02/06 03:07:52;;;;;;;4.03;1.17;;;18.80;44.20;;;;;;5043936;28;20046;-67
2023/02/06 03:11:03;;;;;;;5.13;1.58;;;18.80;44.40;;;;;;5045508;28;20045;-68
2023/02/06 03:13:46;;;;;;;10.55;1.63;;;18.70;44.60;;;;;;4979972;28;20120;-67
2023/02/06 03:16:25;;;;;;;4.13;1.42;;;18.70;44.90;;;;;;4984290;28;20055;-66
2023/02/06 03:19:10;;;;;;;6.22;1.30;;;18.60;45.00;;;;;;4979369;28;20399;-67
2023/02/06 03:21:38;;;;;;;7.00;1.45;;;18.50;45.20;;;;;;4981166;28;20159;-68
2023/02/06 03:24:14;;;;;;;3.95;0.90;;;18.50;45.40;;;;;;4980688;28;20059;-64
2023/02/06 03:26:42;;;;;;;10.63;1.50;;;18.40;45.60;;;;;;4982598;28;20082;-66
2023/02/06 03:29:12;;;;;;;5.30;1.50;;;18.30;45.80;;;;;;4982101;28;20057;-67
2023/02/06 03:31:54;;;;;;;6.97;1.40;;;18.30;45.70;;;;;;4984699;28;20086;-66
2023/02/06 03:34:39;;;;;;;5.63;1.55;;;18.20;45.80;;;;;;4978944;28;20048;-65
2023/02/06 03:37:05;;;;;;;5.30;1.88;;;18.20;46.00;;;;;;4982391;28;20066;-66
2023/02/06 03:39:32;;;;;;;5.95;1.70;;;18.20;46.10;;;;;;4984721;28;20057;-66
2023/02/06 03:42:00;;;;;;;6.22;1.40;;;18.10;46.30;;;;;;4982856;28;20052;-66
2023/02/06 03:44:32;;;;;;;5.47;1.50;;;18.10;46.50;;;;;;4977521;28;20056;-68
2023/02/06 03:47:01;;;;;;;8.55;1.40;;;18.10;46.50;;;;;;4981986;28;20062;-66
2023/02/06 03:49:30;;;;;;;7.07;1.90;;;18.10;46.60;;;;;;5006560;28;20066;-67
2023/02/06 03:52:07;;;;;;;15.63;2.80;;;18.00;46.60;;;;;;5045100;28;20492;-67
2023/02/06 03:54:36;;;;;;;6.18;1.77;;;18.00;46.60;;;;;;5046593;28;20061;-66
2023/02/06 03:57:04;;;;;;;16.75;1.88;;;18.00;46.40;;;;;;5038903;28;20062;-66
2023/02/06 03:59:31;;;;;;;11.32;1.90;;;17.90;45.60;;;;;;5042607;28;20133;-66
2023/02/06 04:02:01;;;;;;;8.27;1.90;;;17.90;45.80;;;;;;5041956;28;20048;-66
2023/02/06 04:04:35;;;;;;;6.65;1.55;;;17.90;46.00;;;;;;5036152;28;20055;-65
2023/02/06 04:07:22;;;;;;;6.63;1.73;;;17.90;46.20;;;;;;5045418;28;20040;-70
2023/02/06 04:09:49;;;;;;;13.43;1.60;;;17.80;46.20;;;;;;5044562;28;20056;-68
2023/02/06 04:12:15;;;;;;;6.88;1.35;;;17.80;46.00;;;;;;5043228;28;20061;-69
2023/02/06 04:14:42;;;;;;;10.65;1.65;;;17.80;46.00;;;;;;5040038;28;20084;-67
2023/02/06 04:17:10;;;;;;;6.03;1.30;;;17.80;46.00;;;;;;5043390;28;20179;-67
2023/02/06 04:19:37;;;;;;;7.38;1.50;;;17.80;45.60;;;;;;5043173;28;20067;-69
2023/02/06 04:22:05;;;;;;;14.40;1.45;;;17.80;45.20;;;;;;5046604;28;20104;-68
2023/02/06 04:24:32;;;;;;;5.88;1.80;;;17.80;45.00;;;;;;5040592;28;20524;-67
2023/02/06 04:26:58;;;;;;;8.50;1.60;;;17.80;45.80;;;;;;5041860;28;20053;-67
2023/02/06 04:29:25;;;;;;;13.32;2.08;;;17.80;46.20;;;;;;5042260;28;20105;-67
2023/02/06 04:31:51;;;;;;;9.38;2.17;;;17.70;46.60;;;;;;5041264;28;20618;-67
2023/02/06 04:34:18;;;;;;;4.90;1.50;;;17.60;47.00;;;;;;5045475;28;20045;-74
2023/02/06 04:36:44;;;;;;;5.40;1.63;;;17.60;47.40;;;;;;5046440;28;20493;-67
2023/02/06 04:39:11;;;;;;;13.63;2.10;;;17.50;47.50;;;;;;5042873;28;20096;-70
2023/02/06 04:41:37;;;;;;;13.50;1.80;;;17.40;47.50;;;;;;5040010;28;20113;-68
2023/02/06 04:44:04;;;;;;;9.88;1.83;;;17.40;47.60;;;;;;5042170;28;20398;-68
2023/02/06 04:46:30;;;;;;;10.10;1.80;;;17.30;47.50;;;;;;5045483;28;20065;-70
2023/02/06 04:48:56;;;;;;;5.97;1.70;;;17.30;47.40;;;;;;5040024;28;20058;-68
2023/02/06 04:51:23;;;;;;;9.75;2.00;;;17.30;47.40;;;;;;5041570;28;20067;-67
2023/02/06 04:53:49;;;;;;;8.25;1.98;;;17.20;47.40;;;;;;5040980;28;20116;-70
2023/02/06 04:56:16;;;;;;;9.70;2.10;;;17.20;47.50;;;;;;5043257;28;20053;-72
2023/02/06 04:58:42;;;;;;;10.98;2.20;;;17.20;47.70;;;;;;5040134;28;20133;-71
2023/02/06 05:01:09;;;;;;;9.80;2.00;;;17.10;47.70;;;;;;5042573;28;20138;-68
2023/02/06 05:03:35;;;;;;;10.00;1.98;;;17.00;47.80;;;;;;5044231;28;20050;-69
2023/02/06 05:06:03;;;;;;;7.75;1.90;;;17.00;47.90;;;;;;5038330;28;20388;-70
2023/02/06 05:08:30;;;;;;;10.93;1.77;;;16.90;47.30;;;;;;5040247;28;20053;-72
2023/02/06 05:10:56;;;;;;;9.63;2.10;;;17.00;47.20;;;;;;5039295;28;20080;-69
2023/02/06 05:13:23;;;;;;;8.27;1.85;;;16.90;47.00;;;;;;5039836;28;20082;-69
2023/02/06 05:15:50;;;;;;;8.52;1.85;;;16.90;46.90;;;;;;5044236;28;20858;-71
2023/02/06 05:18:16;;;;;;;7.75;2.00;;;16.80;46.60;;;;;;5040769;28;20051;-71
2023/02/06 05:20:43;;;;;;;6.03;1.80;;;16.80;46.20;;;;;;5039491;28;20078;-69
2023/02/06 05:23:10;;;;;;;7.38;1.80;;;16.90;45.70;;;;;;5039833;28;20088;-69
2023/02/06 05:25:37;;;;;;;6.20;1.80;;;16.80;44.90;;;;;;5039726;28;20051;-68
2023/02/06 05:28:05;;;;;;;6.55;1.65;;;16.80;45.00;;;;;;5045761;28;20057;-70
2023/02/06 05:30:33;;;;;;;8.13;1.83;;;16.80;44.50;;;;;;5045053;28;20078;-67
2023/02/06 05:32:59;;;;;;;8.82;2.40;;;16.80;44.30;;;;;;5045553;28;20099;-71
2023/02/06 05:35:26;;;;;;;17.30;4.13;;;16.80;44.20;;;;;;5043522;28;20553;-70
2023/02/06 05:37:52;;;;;;;19.67;6.13;;;16.80;44.40;;;;;;5047156;28;20066;-71
2023/02/06 05:40:19;;;;;;;14.57;3.65;;;16.80;44.60;;;;;;5046041;28;20158;-71
2023/02/06 05:42:45;;;;;;;8.80;1.70;;;16.70;44.50;;;;;;5047486;28;20172;-70
2023/02/06 05:45:12;;;;;;;11.23;2.55;;;16.70;44.50;;;;;;5049287;28;20108;-68
2023/02/06 05:47:38;;;;;;;10.32;1.70;;;16.60;44.80;;;;;;5039865;28;20185;-69
2023/02/06 05:50:05;;;;;;;15.73;1.88;;;16.60;44.90;;;;;;5043252;28;20466;-71
2023/02/06 05:52:31;;;;;;;10.57;2.10;;;16.60;44.50;;;;;;5046292;28;20067;-70
2023/02/06 05:54:58;;;;;;;12.07;1.75;;;16.60;44.70;;;;;;5050574;28;20086;-70
2023/02/06 05:57:24;;;;;;;8.52;2.50;;;16.50;44.90;;;;;;5045735;28;20062;-69
2023/02/06 05:59:51;;;;;;;14.75;4.32;;;16.50;44.90;;;;;;5043023;28;20071;-71
2023/02/06 06:02:17;;;;;;;12.13;2.38;;;16.50;45.00;;;;;;5044666;28;20058;-68
2023/02/06 06:04:43;;;;;;;7.00;1.73;;;16.40;44.90;;;;;;5043391;28;20067;-68
2023/02/06 06:07:10;;;;;;;9.13;2.20;;;16.40;45.20;;;;;;5042075;28;20066;-69
2023/02/06 06:09:36;;;;;;;9.32;1.92;;;16.40;45.60;;;;;;5047187;28;20450;-70
2023/02/06 06:12:03;;;;;;;10.50;2.35;;;16.40;46.00;;;;;;5045582;28;20059;-72
2023/02/06 06:14:29;;;;;;;5.70;2.30;;;16.30;46.20;;;;;;5044401;28;20061;-69
2023/02/06 06:16:56;;;;;;;10.02;1.80;;;16.30;46.30;;;;;;5045694;28;20134;-70
2023/02/06 06:19:22;;;;;;;9.23;2.58;;;16.20;46.40;;;;;;5047807;28;20076;-67
2023/02/06 06:21:48;;;;;;;12.90;1.85;;;16.20;46.40;;;;;;5045115;28;20067;-69
2023/02/06 06:24:15;;;;;;;9.38;1.83;;;16.20;46.10;;;;;;5042169;28;20057;-69
2023/02/06 06:26:41;;;;;;;14.00;2.25;;;16.20;45.80;;;;;;5041647;28;20059;-67
2023/02/06 06:29:08;;;;;;;5.55;1.98;;;16.20;45.90;;;;;;5045115;28;20065;-68
2023/02/06 06:31:34;;;;;;;8.63;1.95;;;16.20;45.90;;;;;;5042516;28;21393;-68
2023/02/06 06:34:00;;;;;;;10.63;2.28;;;16.10;46.00;;;;;;5037358;28;20136;-68
2023/02/06 06:36:27;;;;;;;17.33;3.20;;;16.10;45.90;;;;;;5043269;28;20063;-70
2023/02/06 06:38:53;;;;;;;11.55;3.50;;;16.10;45.60;;;;;;5045881;28;20072;-67
2023/02/06 06:41:20;;;;;;;15.02;2.90;;;16.10;45.30;;;;;;5041458;28;20161;-67
2023/02/06 06:43:46;;;;;;;9.88;2.00;;;16.10;45.30;;;;;;5043116;28;20075;-68
2023/02/06 06:46:13;;;;;;;12.63;2.42;;;16.10;45.50;;;;;;5044413;28;20446;-69
2023/02/06 06:48:39;;;;;;;17.02;3.05;;;16.10;45.30;;;;;;5044288;28;20060;-65
2023/02/06 06:51:06;;;;;;;12.55;2.55;;;16.10;45.40;;;;;;5043009;28;20444;-67
2023/02/06 06:53:32;;;;;;;13.15;3.22;;;16.10;45.60;;;;;;5045164;28;20054;-67
2023/02/06 06:56:17;;;;;;;23.60;3.30;;;16.10;45.60;;;;;;5044147;28;20551;-70
2023/02/06 06:58:43;;;;;;;21.48;3.67;;;16.00;45.70;;;;;;5040796;28;20514;-72
2023/02/06 07:01:10;;;;;;;18.48;4.32;;;16.10;45.70;;;;;;5044047;28;20086;-72
2023/02/06 07:03:37;;;;;;;16.30;2.88;;;16.10;46.30;;;;;;5044872;28;20059;-70
2023/02/06 07:06:04;;;;;;;23.50;2.83;;;16.10;47.00;;;;;;5042074;28;20053;-70
2023/02/06 07:08:31;;;;;;;19.30;2.70;;;16.00;47.70;;;;;;5042424;28;20076;-70
2023/02/06 07:10:57;;;;;;;24.48;3.38;;;15.90;48.50;;;;;;5046052;28;20057;-76
2023/02/06 07:13:24;;;;;;;31.35;3.05;;;15.80;49.10;;;;;;5044042;28;20058;-74
2023/02/06 07:15:50;;;;;;;19.10;3.15;;;15.80;49.60;;;;;;5045723;28;20084;-74
2023/02/06 07:18:17;;;;;;;36.45;4.05;;;15.70;50.20;;;;;;5046769;28;20066;-71
2023/02/06 07:20:43;;;;;;;33.67;3.60;;;15.70;51.30;;;;;;5043396;28;20129;-73
2023/02/06 07:23:09;;;;;;;;;;;15.60;51.30;;;;;;5041279;28;20177;-72
2023/02/06 07:25:36;;;;;;;41.33;4.22;;;15.50;51.80;;;;;;5039755;28;19996;-71
2023/02/06 07:28:02;;;;;;;38.72;4.32;;;15.40;52.70;;;;;;5043084;28;20505;-70
2023/02/06 07:30:28;;;;;;;;;;;15.40;53.20;;;;;;5043663;28;20068;-71
2023/02/06 07:32:54;;;;;;;39.40;4.10;;;15.20;53.90;;;;;;5041649;28;19987;-69
2023/02/06 07:35:20;;;;;;;;;;;15.20;54.60;;;;;;5037861;28;20073;-67
2023/02/06 07:37:47;;;;;;;37.58;4.20;;;15.20;55.10;;;;;;5041681;28;19978;-72
2023/02/06 07:40:13;;;;;;;;;;;15.10;55.30;;;;;;5042793;28;20462;-71
2023/02/06 07:42:39;;;;;;;28.15;4.10;;;15.10;55.50;;;;;;5042474;28;20333;-72
2023/02/06 07:45:06;;;;;;;18.05;3.08;;;15.00;56.00;;;;;;5039970;28;20078;-67
2023/02/06 07:47:32;;;;;;;27.05;3.42;;;14.90;56.40;;;;;;5043606;28;20562;-68
2023/02/06 07:49:59;;;;;;;22.60;3.08;;;14.90;56.90;;;;;;5040440;28;20065;-69
2023/02/06 07:52:25;;;;;;;;;;;14.90;57.40;;;;;;5040645;28;20155;-72
2023/02/06 07:54:51;;;;;;;22.08;2.95;;;14.90;58.00;;;;;;5040025;28;19988;-67
2023/02/06 07:57:17;;;;;;;;;;;14.80;58.30;;;;;;5038893;28;20060;-66
2023/02/06 07:59:44;;;;;;;37.80;3.90;;;14.80;58.10;;;;;;5040649;28;19956;-68
2023/02/06 08:02:11;;;;;;;68.18;5.65;;;14.80;57.90;;;;;;5041561;28;20066;-73
2023/02/06 08:04:38;;;;;;;107.18;6.95;;;14.80;57.70;;;;;;5040330;28;20064;-66
2023/02/06 08:07:05;;;;;;;114.07;9.63;;;14.80;57.30;;;;;;5041665;28;20089;-71
2023/02/06 08:09:32;;;;;;;167.82;10.13;;;14.80;57.30;;;;;;5039344;28;20079;-71
2023/02/06 08:11:58;;;;;;;118.93;8.77;;;14.80;57.90;;;;;;5041894;28;20400;-76
2023/02/06 08:14:25;;;;;;;106.75;8.30;;;14.80;58.10;;;;;;5041529;28;20531;-71
2023/02/06 08:16:51;;;;;;;78.22;6.88;;;14.70;58.40;;;;;;5040078;28;20063;-67
2023/02/06 08:19:17;;;;;;;;;;;14.80;58.40;;;;;;5042817;28;20057;-69
2023/02/06 08:21:44;;;;;;;134.45;9.50;;;14.80;58.70;;;;;;5043901;28;20025;-70
2023/02/06 08:24:11;;;;;;;141.32;9.57;;;14.80;58.70;;;;;;5041236;28;20097;-72
2023/02/06 08:26:38;;;;;;;132.45;10.23;;;14.80;58.20;;;;;;5039882;28;20677;-67
2023/02/06 08:29:06;;;;;;;110.35;8.93;;;14.80;57.80;;;;;;5038372;28;20149;-69
2023/02/06 08:31:36;;;;;;;77.22;6.13;;;14.80;58.00;;;;;;5042373;28;20104;-72
2023/02/06 08:34:03;;;;;;;76.72;6.97;;;14.90;58.40;;;;;;5041613;28;20557;-72
2023/02/06 08:36:33;;;;;;;56.35;4.38;;;14.90;58.40;;;;;;5042280;28;20065;-70
2023/02/06 08:39:00;;;;;;;47.40;3.70;;;14.90;57.90;;;;;;5040355;28;20157;-68
2023/02/06 08:41:38;;;;;;;50.30;4.57;;;14.90;57.70;;;;;;5040693;28;20755;-69
2023/02/06 08:44:14;;;;;;;40.70;3.78;;;14.90;58.00;;;;;;5041723;28;20093;-72
2023/02/06 08:46:42;;;;;;;57.03;3.72;;;14.90;58.30;;;;;;5041784;28;20135;-68
2023/02/06 08:49:16;;;;;;;30.60;3.25;;;14.90;58.70;;;;;;5042064;28;20703;-73
2023/02/06 08:51:43;;;;;;;24.23;3.17;;;14.90;59.30;;;;;;5040050;28;20118;-66
2023/02/06 08:54:18;;;;;;;44.50;4.03;;;14.90;59.50;;;;;;5040821;28;20092;-67
2023/02/06 08:56:45;;;;;;;67.85;4.88;;;14.90;77.10;;;;;;5040349;28;20043;-68
2023/02/06 08:59:13;;;;;;;43.25;3.72;;;14.90;59.70;;;;;;5038337;28;20410;-71
2023/02/06 09:01:40;;;;;;;36.67;4.00;;;14.90;60.00;;;;;;5041170;28;20077;-65
2023/02/06 09:04:09;;;;;;;37.03;3.95;;;14.90;60.60;;;;;;5041179;28;20077;-68
2023/02/06 09:07:04;;;;;;;35.75;4.32;;;14.80;70.90;;;;;;5108525;27;20425;-65
2023/02/06 09:09:30;;;;;;;36.80;3.17;;;14.80;60.90;;;;;;5112604;28;20045;-72
2023/02/06 09:12:01;;;;;;;;;;;;;;;;;;5115071;27;20016;-66
2023/02/06 09:14:28;;;;;;;39.78;4.13;;;14.50;73.20;;;;;;5114009;28;20322;-66
2023/02/06 09:16:56;;;;;;;33.13;3.63;;;14.80;76.50;;;;;;5109081;28;20078;-70
